Time;durP1;ratioP1;P1;durP2;ratioP2;P2;SDS_P1;SDS_P2;PMS_P1;PMS_P2;Temp;Humidity;BMP_temperature;BMP_pressure;BME280_temperature;BME280_humidity;BME280_pressure;Samples;Min_cycle;Max_cycle;Signal;HPM_P1;HPM_P2
2021/01/15 00:05:06;;;;;;;26.83;11.60;;;;;;;2.55;74.19;101140.50;8514437;33;20917;-70
2021/01/15 00:10:10;;;;;;;41.43;14.87;;;;;;;2.48;74.21;101141.53;8516662;33;20459;-72
2021/01/15 00:15:13;;;;;;;36.03;15.50;;;;;;;2.39;74.23;101137.31;8522257;33;21365;-72
2021/01/15 00:20:16;;;;;;;36.63;15.37;;;;;;;2.28;74.30;101146.38;8532560;33;20156;-72
2021/01/15 00:25:19;;;;;;;28.80;12.03;;;;;;;2.23;74.41;101144.66;8533494;33;20437;-71
2021/01/15 00:30:23;;;;;;;29.27;12.63;;;;;;;2.17;74.69;101138.66;8532731;33;20329;-71
2021/01/15 00:35:26;;;;;;;32.50;12.73;;;;;;;2.11;75.04;101144.94;8537980;33;20183;-72
2021/01/15 00:40:29;;;;;;;24.93;11.00;;;;;;;2.05;75.47;101133.63;8540372;33;21879;-71
2021/01/15 00:45:31;;;;;;;24.97;11.50;;;;;;;2.13;75.70;101127.28;8543174;33;20148;-71
2021/01/15 00:50:35;;;;;;;29.03;10.57;;;;;;;2.10;76.00;101132.63;8547279;33;20407;-71
2021/01/15 00:55:37;;;;;;;25.60;11.40;;;;;;;2.07;75.89;101131.84;8544466;33;20471;-71
2021/01/15 01:00:40;;;;;;;25.03;10.87;;;;;;;2.05;76.15;101145.03;8535047;33;21877;-71
2021/01/15 01:05:52;;;;;;;30.00;11.83;;;;;;;2.14;76.26;101143.97;8535605;33;20144;-71
2021/01/15 01:10:55;;;;;;;24.23;11.13;;;;;;;2.16;76.40;101145.69;8537301;33;20460;-70
2021/01/15 01:15:57;;;;;;;23.23;10.77;;;;;;;2.19;76.33;101150.91;8572321;33;20423;-72
2021/01/15 01:21:01;;;;;;;30.73;10.83;;;;;;;2.21;76.17;101154.38;8558763;33;21071;-72
2021/01/15 01:26:05;;;;;;;30.53;11.77;;;;;;;2.33;76.29;101162.94;8541126;33;22232;-71
2021/01/15 01:31:07;;;;;;;28.90;11.07;;;;;;;2.49;76.40;101164.34;8541122;33;20426;-71
2021/01/15 01:36:12;;;;;;;27.57;12.33;;;;;;;2.63;76.12;101170.22;8545692;33;20185;-70
2021/01/15 01:41:14;;;;;;;26.50;11.80;;;;;;;2.72;76.08;101163.88;8540735;33;20136;-70
2021/01/15 01:46:17;;;;;;;31.00;12.73;;;;;;;2.74;75.71;101155.91;8540893;33;20151;-70
2021/01/15 01:51:21;;;;;;;31.07;12.90;;;;;;;2.57;75.27;101167.69;8540402;33;20985;-71
2021/01/15 01:56:23;;;;;;;31.97;13.03;;;;;;;2.55;75.80;101164.25;8540764;33;20152;-71
2021/01/15 02:01:26;;;;;;;31.27;13.60;;;;;;;2.68;76.36;101170.97;8538815;33;21877;-72
2021/01/15 02:06:29;;;;;;;33.60;14.20;;;;;;;2.79;75.90;101178.66;8537811;33;20619;-71
2021/01/15 02:11:41;;;;;;;35.87;14.40;;;;;;;2.88;76.02;101178.47;8538908;33;20417;-71
2021/01/15 02:16:43;;;;;;;27.87;12.63;;;;;;;2.92;76.34;101184.53;8538009;33;20408;-71
2021/01/15 02:22:18;;;;;;;33.33;13.13;;;;;;;3.05;75.55;101174.56;8538589;33;20435;-71
2021/01/15 02:28:00;;;;;;;31.17;14.90;;;;;;;3.11;75.66;101190.28;8540089;33;21507;-72
2021/01/15 02:33:13;;;;;;;39.10;15.47;;;;;;;3.11;75.65;101196.41;8541477;33;20744;-71
2021/01/15 02:38:35;;;;;;;34.33;13.97;;;;;;;3.20;75.33;101205.03;8535124;33;20179;-70
2021/01/15 02:43:38;;;;;;;33.30;14.63;;;;;;;3.23;75.19;101202.31;8534926;33;20151;-70
2021/01/15 02:48:47;;;;;;;34.17;14.40;;;;;;;3.20;75.60;101203.25;8534784;33;20507;-69
2021/01/15 02:53:50;;;;;;;36.30;15.07;;;;;;;3.27;75.10;101210.13;8537568;33;20489;-71
2021/01/15 02:58:52;;;;;;;33.23;14.43;;;;;;;3.25;75.68;101200.50;8535728;33;20436;-71
2021/01/15 03:04:02;;;;;;;32.67;13.90;;;;;;;3.27;75.21;101206.63;8535694;33;20717;-72
2021/01/15 03:09:09;;;;;;;28.13;13.10;;;;;;;3.32;75.23;101210.03;8537273;33;20613;-71
2021/01/15 03:14:13;;;;;;;32.53;12.57;;;;;;;3.34;75.17;101222.28;8536186;33;20354;-71
2021/01/15 03:19:19;;;;;;;29.60;12.87;;;;;;;3.28;75.38;101233.00;8535346;33;20491;-72
2021/01/15 03:24:21;;;;;;;30.07;12.73;;;;;;;3.30;75.44;101236.47;8534850;33;20521;-71
2021/01/15 03:29:37;;;;;;;32.43;13.33;;;;;;;3.30;75.39;101238.25;8536787;33;20639;-72
2021/01/15 03:34:41;;;;;;;29.83;12.00;;;;;;;3.18;76.17;101239.41;8543222;33;20197;-72
2021/01/15 03:39:43;;;;;;;34.17;13.50;;;;;;;3.22;75.95;101235.78;8538453;33;20421;-72
2021/01/15 03:44:46;;;;;;;29.87;12.57;;;;;;;3.19;76.45;101253.47;8530295;33;20225;-72
2021/01/15 03:49:49;;;;;;;27.03;12.60;;;;;;;3.24;76.96;101246.31;8534637;33;20419;-71
2021/01/15 03:54:51;;;;;;;26.53;12.03;;;;;;;3.30;76.51;101252.31;8538411;33;20442;-72
2021/01/15 03:59:53;;;;;;;28.93;12.63;;;;;;;3.30;76.68;101257.59;8538115;33;20797;-71
2021/01/15 04:04:57;;;;;;;27.13;11.73;;;;;;;3.31;77.03;101272.53;8543104;33;20505;-71
2021/01/15 04:09:59;;;;;;;28.93;12.30;;;;;;;3.33;77.30;101272.53;8541558;33;21474;-71
2021/01/15 04:15:02;;;;;;;31.53;12.67;;;;;;;3.25;77.42;101277.09;8541472;33;20981;-72
2021/01/15 04:20:08;;;;;;;29.47;12.50;;;;;;;3.23;77.29;101273.63;8542621;33;22093;-71
2021/01/15 04:25:12;;;;;;;28.17;12.70;;;;;;;3.24;77.73;101276.25;8543838;33;20187;-72
2021/01/15 04:30:16;;;;;;;29.33;13.17;;;;;;;3.27;77.67;101283.22;8546937;33;20413;-72
2021/01/15 04:35:20;;;;;;;32.57;13.60;;;;;;;3.30;77.63;101291.94;8542596;33;20446;-72
2021/01/15 04:40:22;;;;;;;33.60;13.30;;;;;;;3.31;77.45;101298.94;8542019;33;20978;-71
2021/01/15 04:45:24;;;;;;;31.40;13.30;;;;;;;3.29;77.66;101298.13;8541725;33;20293;-72
2021/01/15 04:50:28;;;;;;;32.20;13.20;;;;;;;3.40;77.28;101297.00;8540529;33;20516;-71
2021/01/15 04:55:34;;;;;;;33.10;13.07;;;;;;;3.39;77.10;101303.22;8541774;33;20842;-71
2021/01/15 05:00:36;;;;;;;31.87;13.70;;;;;;;3.31;77.09;101306.88;8543318;33;20429;-72
2021/01/15 05:05:44;;;;;;;33.93;13.23;;;;;;;3.30;77.27;101318.34;8546121;33;21234;-71
2021/01/15 05:10:48;;;;;;;30.57;12.80;;;;;;;3.38;76.63;101315.56;8542407;33;20682;-71
2021/01/15 05:15:53;;;;;;;32.70;12.33;;;;;;;3.37;76.44;101316.44;8542335;33;20528;-70
2021/01/15 05:20:56;;;;;;;29.73;12.47;;;;;;;3.37;75.96;101324.38;8529233;33;21850;-72
2021/01/15 05:25:59;;;;;;;27.33;12.03;;;;;;;3.33;76.09;101320.94;8542013;33;21617;-70
2021/01/15 05:31:01;;;;;;;27.50;13.07;;;;;;;3.33;76.13;101326.22;8547245;33;20194;-73
2021/01/15 05:36:06;;;;;;;29.23;13.33;;;;;;;3.36;76.06;101327.06;8553290;33;20420;-70
2021/01/15 05:41:22;;;;;;;31.97;12.57;;;;;;;3.31;75.88;101340.34;8545983;33;20619;-71
2021/01/15 05:46:25;;;;;;;27.63;11.43;;;;;;;3.26;75.58;101347.50;8539561;33;20151;-71
2021/01/15 05:51:30;;;;;;;33.43;12.80;;;;;;;3.03;75.03;101353.28;8539685;33;20414;-72
2021/01/15 05:56:43;;;;;;;24.50;10.83;;;;;;;2.91;75.17;101351.75;8548456;33;20132;-72
2021/01/15 06:01:48;;;;;;;25.53;11.07;;;;;;;2.96;74.99;101356.91;8571156;33;20410;-71
2021/01/15 06:06:52;;;;;;;30.53;12.67;;;;;;;2.97;75.10;101356.91;8557692;33;20183;-73
2021/01/15 06:12:05;;;;;;;27.63;11.27;;;;;;;2.92;76.01;101363.19;8556079;33;20568;-71
2021/01/15 06:17:09;;;;;;;29.33;12.07;;;;;;;2.72;76.20;101358.28;8552775;33;20558;-71
2021/01/15 06:22:30;;;;;;;30.60;12.20;;;;;;;2.88;75.77;101363.25;8554758;33;21817;-71
2021/01/15 06:27:37;;;;;;;29.13;12.93;;;;;;;2.94;75.75;101361.38;8550333;33;20470;-71
2021/01/15 06:32:41;;;;;;;24.57;10.93;;;;;;;3.10;76.05;101368.97;8554215;33;21843;-72
2021/01/15 06:37:46;;;;;;;25.40;11.53;;;;;;;3.17;75.73;101377.63;8560563;33;20437;-72
2021/01/15 06:42:49;;;;;;;27.53;10.93;;;;;;;3.17;75.62;101376.75;8557275;33;20433;-71
2021/01/15 06:47:54;;;;;;;27.73;11.80;;;;;;;3.15;75.48;101389.97;8558751;33;20963;-71
2021/01/15 06:53:18;;;;;;;25.03;11.47;;;;;;;3.17;75.31;101385.53;8568104;33;21918;-70
2021/01/15 06:58:23;;;;;;;30.13;12.60;;;;;;;3.12;75.60;101388.25;8546468;33;20154;-71
2021/01/15 07:04:01;;;;;;;27.10;11.43;;;;;;;3.12;75.27;101392.69;8547765;33;20410;-71
2021/01/15 07:09:08;;;;;;;23.23;10.47;;;;;;;3.09;75.60;101387.47;8547760;33;20504;-71
2021/01/15 07:14:11;;;;;;;30.03;12.73;;;;;;;3.05;75.27;101386.66;8557395;33;20437;-71
2021/01/15 07:19:15;;;;;;;25.97;10.77;;;;;;;3.04;75.45;101398.09;8558811;33;20267;-71
2021/01/15 07:24:28;;;;;;;29.60;12.03;;;;;;;3.01;75.38;101392.88;8557443;33;20421;-71
2021/01/15 07:29:34;;;;;;;24.60;11.77;;;;;;;2.95;75.89;101400.94;8556916;33;20390;-71
2021/01/15 07:34:44;;;;;;;25.27;12.17;;;;;;;2.94;75.68;101404.50;8580250;33;20152;-71
2021/01/15 07:40:10;;;;;;;23.13;11.73;;;;;;;2.99;75.59;101413.19;8558374;33;20186;-70
2021/01/15 07:45:54;;;;;;;29.23;11.80;;;;;;;3.00;75.91;101422.84;8535916;33;20144;-71
2021/01/15 07:50:57;;;;;;;29.30;12.47;;;;;;;3.03;75.93;101422.78;8558207;33;21579;-71
2021/01/15 07:56:01;;;;;;;44.53;20.73;;;;;;;3.04;75.64;101426.28;8543833;33;20414;-71
2021/01/15 08:01:08;;;;;;;33.03;14.83;;;;;;;3.08;75.78;101428.84;8532917;33;21011;-70
2021/01/15 08:06:12;;;;;;;30.47;12.33;;;;;;;3.11;76.04;101449.91;8563200;33;20160;-70
2021/01/15 08:11:15;;;;;;;31.87;13.10;;;;;;;3.21;75.41;101452.38;8559258;33;20592;-71
2021/01/15 08:16:18;;;;;;;29.97;12.43;;;;;;;3.23;75.18;101463.78;8558300;33;20186;-70
2021/01/15 08:21:21;;;;;;;28.80;12.17;;;;;;;3.27;75.49;101468.13;8561832;33;20139;-72
2021/01/15 08:26:47;;;;;;;28.47;12.50;;;;;;;3.31;75.22;101465.38;8563532;33;20151;-72
2021/01/15 08:31:56;;;;;;;31.77;12.77;;;;;;;3.25;74.42;101477.84;8569612;33;20428;-70
2021/01/15 08:37:01;;;;;;;31.87;15.13;;;;;;;3.36;74.48;101485.56;8580550;33;20518;-70
2021/01/15 08:42:05;;;;;;;27.50;12.50;;;;;;;3.46;74.59;101492.41;8570097;33;20410;-70
2021/01/15 08:47:11;;;;;;;31.03;13.80;;;;;;;3.56;74.72;101500.13;8533352;33;21029;-70
2021/01/15 08:52:16;;;;;;;27.90;13.37;;;;;;;3.65;74.25;101503.47;8507101;33;20608;-70
2021/01/15 08:57:20;;;;;;;28.80;12.90;;;;;;;3.72;74.01;101513.00;8534363;33;20209;-69
2021/01/15 09:02:23;;;;;;;43.77;18.03;;;;;;;3.98;73.92;101504.56;8506048;33;20468;-70
2021/01/15 09:07:27;;;;;;;25.77;12.97;;;;;;;4.13;73.42;101504.19;8509677;33;20561;-70
2021/01/15 09:12:31;;;;;;;29.63;13.15;;;;;;;4.22;72.70;101511.03;8506513;33;25535;-70
2021/01/15 09:17:34;;;;;;;28.63;13.30;;;;;;;4.27;71.79;101525.06;8492395;33;20421;-70
2021/01/15 09:22:37;;;;;;;24.80;11.07;;;;;;;4.14;71.81;101536.81;8502567;33;21327;-70
2021/01/15 09:27:40;;;;;;;26.45;11.57;;;;;;;4.03;71.92;101536.16;8505617;33;21775;-70
2021/01/15 09:32:44;;;;;;;29.83;13.50;;;;;;;3.92;72.36;101539.03;8505315;33;20250;-71
2021/01/15 09:37:46;;;;;;;32.97;14.03;;;;;;;3.90;72.33;101551.44;8504970;33;20478;-71
2021/01/15 09:42:50;;;;;;;31.57;12.90;;;;;;;3.79;72.45;101554.28;8525720;33;20191;-70
2021/01/15 09:47:52;;;;;;;25.00;11.37;;;;;;;3.80;72.68;101556.03;8546309;33;20598;-71
2021/01/15 09:52:54;;;;;;;23.57;11.30;;;;;;;3.79;72.82;101562.22;8521953;33;20170;-72
2021/01/15 09:57:58;;;;;;;26.43;12.73;;;;;;;3.78;73.17;101566.66;8488599;33;21428;-70
2021/01/15 10:03:01;;;;;;;34.30;13.55;;;;;;;3.83;73.02;101569.19;8488487;33;20457;-70
2021/01/15 10:08:05;;;;;;;32.03;13.43;;;;;;;3.84;73.18;101570.94;8487763;33;20145;-69
2021/01/15 10:13:08;;;;;;;29.07;13.30;;;;;;;3.81;73.03;101581.56;8490109;33;20633;-70
2021/01/15 10:18:11;;;;;;;30.67;15.03;;;;;;;3.81;72.87;101584.19;8502062;33;20417;-70
2021/01/15 10:23:13;;;;;;;53.37;19.50;;;;;;;3.83;73.43;101579.75;8503114;33;21746;-72
2021/01/15 10:28:17;;;;;;;42.47;19.47;;;;;;;3.84;73.29;101585.91;8499922;33;20876;-70
2021/01/15 10:33:21;;;;;;;27.30;13.27;;;;;;;3.81;73.39;101578.91;8501636;33;21123;-71
2021/01/15 10:38:24;;;;;;;27.50;13.07;;;;;;;3.79;73.54;101570.16;8520761;33;20345;-71
2021/01/15 10:43:27;;;;;;;41.27;16.53;;;;;;;3.85;73.43;101562.09;8529758;33;20433;-69
2021/01/15 10:48:30;;;;;;;28.83;15.13;;;;;;;3.87;73.15;101568.22;8504243;33;20444;-69
2021/01/15 10:53:32;;;;;;;38.03;13.80;;;;;;;3.67;73.03;101567.75;8521724;33;20156;-69
2021/01/15 10:58:35;;;;;;;39.23;17.50;;;;;;;3.82;73.41;101572.75;8536912;33;20555;-73
2021/01/15 11:03:41;;;;;;;38.30;15.17;;;;;;;4.00;73.46;101571.47;8553415;33;20461;-70
2021/01/15 11:08:44;;;;;;;33.80;14.87;;;;;;;3.97;73.15;101572.41;8534996;33;20361;-71
2021/01/15 11:13:47;;;;;;;33.47;14.17;;;;;;;4.00;73.24;101575.03;8480306;33;20498;-70
2021/01/15 11:18:49;;;;;;;29.20;13.60;;;;;;;3.98;73.31;101578.59;8480650;33;20153;-70
2021/01/15 11:23:52;;;;;;;32.90;12.97;;;;;;;3.89;73.38;101576.97;8483913;33;20595;-72
2021/01/15 11:28:58;;;;;;;34.17;14.00;;;;;;;3.94;72.89;101574.25;8481530;33;20471;-71
2021/01/15 11:34:01;;;;;;;35.50;14.27;;;;;;;3.96;73.15;101578.63;8479302;33;20627;-70
2021/01/15 11:39:08;;;;;;;39.10;18.77;;;;;;;4.10;73.12;101570.38;8479478;33;20823;-71
2021/01/15 11:44:14;;;;;;;34.23;14.53;;;;;;;4.07;73.03;101565.16;8479968;33;22024;-71
2021/01/15 11:49:16;;;;;;;37.77;15.37;;;;;;;4.12;72.65;101573.03;8479987;33;20452;-69
2021/01/15 11:54:18;;;;;;;43.83;15.43;;;;;;;4.20;72.80;101571.06;8480697;33;20185;-71
2021/01/15 11:59:22;;;;;;;40.17;14.40;;;;;;;4.24;72.88;101572.75;8481610;33;20505;-71
2021/01/15 12:04:25;;;;;;;38.97;14.97;;;;;;;4.23;72.46;101574.53;8481710;33;20904;-70
2021/01/15 12:09:27;;;;;;;37.87;13.73;;;;;;;4.17;71.79;101577.31;8478029;33;20458;-70
2021/01/15 12:14:30;;;;;;;37.90;14.90;;;;;;;4.14;71.61;101571.19;8479122;33;20861;-71
2021/01/15 12:19:32;;;;;;;33.83;14.23;;;;;;;4.14;71.73;101563.25;8482898;33;20694;-70
2021/01/15 12:24:35;;;;;;;34.13;15.40;;;;;;;4.13;71.52;101558.88;8483313;33;20486;-70
2021/01/15 12:29:38;;;;;;;34.40;13.50;;;;;;;3.90;72.32;101560.22;8482527;33;20416;-70
2021/01/15 12:34:40;;;;;;;30.97;13.70;;;;;;;3.88;72.80;101574.38;8478461;33;20409;-70
2021/01/15 12:39:42;;;;;;;33.73;13.67;;;;;;;3.93;72.90;101559.31;8477319;33;20820;-70
2021/01/15 12:44:46;;;;;;;36.00;14.77;;;;;;;3.68;73.44;101564.22;8477516;33;20417;-70
2021/01/15 12:49:48;;;;;;;36.03;14.60;;;;;;;3.85;73.31;101567.38;8476225;33;21821;-70
2021/01/15 12:54:51;;;;;;;37.37;14.80;;;;;;;3.87;73.03;101565.59;8483362;33;21333;-70
2021/01/15 12:59:54;;;;;;;34.33;14.57;;;;;;;3.87;72.78;101562.94;8480903;33;20482;-70
2021/01/15 13:04:57;;;;;;;33.90;14.67;;;;;;;3.72;73.17;101572.03;8482507;33;20357;-70
2021/01/15 13:09:59;;;;;;;34.80;15.63;;;;;;;3.65;73.37;101567.78;8507611;33;20536;-70
2021/01/15 13:15:04;;;;;;;41.00;15.23;;;;;;;3.66;73.50;101558.94;8502731;33;20176;-69
2021/01/15 13:20:09;;;;;;;34.80;14.10;;;;;;;3.71;73.42;101558.88;8535648;33;20162;-71
2021/01/15 13:25:12;;;;;;;39.57;15.77;;;;;;;3.77;73.00;101564.88;8539868;33;21156;-71
2021/01/15 13:30:28;;;;;;;33.07;15.00;;;;;;;3.69;73.62;101572.09;8519204;33;20860;-71
2021/01/15 13:35:47;;;;;;;35.73;15.20;;;;;;;3.73;73.60;101573.78;8486454;33;20203;-71
2021/01/15 13:40:50;;;;;;;40.03;14.90;;;;;;;3.59;73.73;101573.16;8510517;33;20776;-71
2021/01/15 13:45:54;;;;;;;35.37;14.60;;;;;;;3.73;74.46;101565.88;8511877;33;20433;-71
2021/01/15 13:50:59;;;;;;;34.93;14.70;;;;;;;3.83;74.03;101568.31;8477930;33;20686;-71
2021/01/15 13:56:01;;;;;;;31.57;13.50;;;;;;;3.73;74.01;101567.63;8476321;33;20214;-71
2021/01/15 14:01:04;;;;;;;38.57;14.53;;;;;;;3.77;73.63;101570.19;8472574;33;20153;-71
2021/01/15 14:06:07;;;;;;;34.90;14.97;;;;;;;3.66;73.66;101574.81;8523114;33;20483;-72
2021/01/15 14:11:10;;;;;;;35.03;14.33;;;;;;;3.46;73.81;101580.47;8526853;33;20149;-72
2021/01/15 14:16:13;;;;;;;33.77;13.83;;;;;;;3.10;74.59;101572.31;8497148;33;20465;-72
2021/01/15 14:21:15;;;;;;;31.50;14.70;;;;;;;3.48;74.96;101581.31;8465679;33;20210;-72
2021/01/15 14:26:18;;;;;;;40.23;15.53;;;;;;;3.54;74.95;101575.91;8468506;33;20446;-71
2021/01/15 14:31:21;;;;;;;33.03;14.23;;;;;;;3.58;75.62;101589.06;8470535;33;21999;-71
2021/01/15 14:36:23;;;;;;;41.30;15.83;;;;;;;3.55;75.79;101588.22;8472175;33;20191;-71
2021/01/15 14:41:26;;;;;;;51.17;21.87;;;;;;;3.36;76.21;101596.50;8477514;33;20402;-72
2021/01/15 14:46:32;;;;;;;37.23;14.60;;;;;;;3.18;76.25;101610.91;8479304;33;20414;-71
2021/01/15 14:51:36;;;;;;;30.60;13.20;;;;;;;3.01;76.80;101616.44;8496812;33;20160;-71
2021/01/15 14:56:40;;;;;;;20.07;9.57;;;;;;;2.92;76.93;101616.59;8485915;33;20430;-71
2021/01/15 15:01:43;;;;;;;26.97;10.07;;;;;;;2.86;77.09;101622.84;8535050;33;20971;-72
2021/01/15 15:06:46;;;;;;;23.30;11.00;;;;;;;2.89;77.60;101628.94;8557112;33;20927;-72
2021/01/15 15:11:49;;;;;;;26.20;12.13;;;;;;;2.86;77.59;101639.56;8560255;33;20568;-71
2021/01/15 15:16:52;;;;;;;22.27;10.17;;;;;;;2.84;77.48;101635.19;8558988;33;20164;-70
2021/01/15 15:21:54;;;;;;;32.10;11.47;;;;;;;2.84;77.38;101637.84;8564230;33;20175;-71
2021/01/15 15:26:57;;;;;;;21.30;10.37;;;;;;;2.76;77.78;101643.22;8592650;33;20444;-72
2021/01/15 15:32:01;;;;;;;22.07;11.00;;;;;;;2.76;77.71;101651.13;8577078;33;20178;-72
2021/01/15 15:37:04;;;;;;;25.10;9.97;;;;;;;2.77;77.05;101650.28;8556993;33;20483;-71
2021/01/15 15:42:07;;;;;;;20.33;9.27;;;;;;;2.71;76.61;101652.97;8570549;33;22139;-72
2021/01/15 15:47:11;;;;;;;23.30;11.07;;;;;;;2.70;76.65;101642.44;8526970;33;20194;-72
2021/01/15 15:52:14;;;;;;;26.17;11.37;;;;;;;2.70;76.35;101656.50;8495156;33;20420;-71
2021/01/15 15:57:16;;;;;;;23.87;9.47;;;;;;;2.70;76.35;101661.78;8518539;33;20171;-70
2021/01/15 16:02:19;;;;;;;22.40;9.20;;;;;;;2.65;75.08;101651.28;8512074;33;20332;-70
2021/01/15 16:07:22;;;;;;;19.70;8.60;;;;;;;2.62;74.11;101650.47;8496642;33;21005;-72
2021/01/15 16:12:24;;;;;;;18.23;7.40;;;;;;;2.64;73.51;101664.53;8495965;33;20421;-72
2021/01/15 16:17:27;;;;;;;17.63;8.37;;;;;;;2.64;73.03;101673.31;8496124;33;20342;-71
2021/01/15 16:22:30;;;;;;;20.00;8.70;;;;;;;2.60;72.35;101676.88;8532905;33;20420;-71
2021/01/15 16:27:32;;;;;;;19.37;7.43;;;;;;;2.60;72.05;101676.88;8537968;33;21549;-71
2021/01/15 16:32:36;;;;;;;28.23;11.20;;;;;;;2.57;71.17;101678.69;8535125;33;21153;-72
2021/01/15 16:37:39;;;;;;;22.23;9.77;;;;;;;2.43;69.99;101678.84;8508932;33;20606;-72
2021/01/15 16:42:43;;;;;;;14.77;6.93;;;;;;;2.47;70.23;101685.84;8515646;33;20184;-72
2021/01/15 16:47:47;;;;;;;20.70;8.73;;;;;;;2.42;70.10;101688.53;8508888;33;20200;-71
2021/01/15 16:52:49;;;;;;;23.37;10.13;;;;;;;2.40;69.27;101689.44;8508164;33;20480;-71
2021/01/15 16:58:01;;;;;;;18.47;7.97;;;;;;;2.26;69.08;101688.75;8507942;33;20149;-72
2021/01/15 17:03:05;;;;;;;14.13;6.73;;;;;;;2.10;68.57;101695.94;8540251;33;20599;-72
2021/01/15 17:08:08;;;;;;;19.83;9.40;;;;;;;2.12;68.95;101694.19;8564475;33;20996;-72
2021/01/15 17:13:10;;;;;;;17.90;7.37;;;;;;;2.11;68.50;101703.84;8532268;33;20144;-71
2021/01/15 17:18:13;;;;;;;18.43;8.33;;;;;;;2.12;68.92;101696.81;8539436;33;20203;-71
2021/01/15 17:23:16;;;;;;;21.40;9.37;;;;;;;2.21;68.87;101701.97;8516809;33;20516;-72
2021/01/15 17:28:18;;;;;;;17.37;8.63;;;;;;;2.04;68.16;101711.84;8525931;33;20195;-72
2021/01/15 17:33:26;;;;;;;23.57;7.57;;;;;;;2.26;68.83;101716.00;8515618;33;20565;-71
2021/01/15 17:38:28;;;;;;;26.57;9.33;;;;;;;2.35;68.36;101710.59;8519073;33;20145;-71
2021/01/15 17:43:31;;;;;;;23.77;8.97;;;;;;;2.39;67.96;101712.31;8515482;33;21071;-72
2021/01/15 17:48:34;;;;;;;21.83;8.53;;;;;;;2.33;67.94;101711.50;8520994;33;20176;-72
2021/01/15 17:53:36;;;;;;;21.33;8.10;;;;;;;2.34;67.60;101700.94;8513311;33;20236;-72
2021/01/15 17:58:39;;;;;;;15.10;6.90;;;;;;;2.40;67.67;101708.78;8508742;33;20435;-72
2021/01/15 18:03:42;;;;;;;14.23;6.87;;;;;;;2.41;66.51;101700.00;8513562;33;20849;-72
2021/01/15 18:08:45;;;;;;;13.20;6.50;;;;;;;2.41;65.04;101712.28;8506817;33;20282;-72
2021/01/15 18:13:47;;;;;;;12.77;6.10;;;;;;;2.43;64.99;101724.56;8504451;33;20510;-72
2021/01/15 18:18:51;;;;;;;11.23;6.50;;;;;;;2.43;64.90;101724.56;8503462;33;20250;-72
2021/01/15 18:23:54;;;;;;;12.10;6.13;;;;;;;2.43;64.87;101724.56;8506340;33;20459;-72
2021/01/15 18:28:56;;;;;;;18.07;8.20;;;;;;;2.44;64.53;101725.44;8544696;33;20156;-71
2021/01/15 18:33:59;;;;;;;13.27;5.97;;;;;;;2.48;64.68;101726.28;8507045;33;20211;-71
2021/01/15 18:39:02;;;;;;;10.50;4.97;;;;;;;2.39;62.15;101727.28;8509885;33;20503;-71
2021/01/15 18:44:06;;;;;;;8.77;4.87;;;;;;;2.37;62.54;101731.69;8507686;33;20157;-71
2021/01/15 18:49:10;;;;;;;8.40;5.77;;;;;;;2.36;62.34;101733.47;8506727;33;20251;-71
2021/01/15 18:54:13;;;;;;;22.27;9.20;;;;;;;2.40;62.52;101735.16;8506116;33;20438;-72
2021/01/15 18:59:16;;;;;;;24.93;10.13;;;;;;;2.46;62.51;101739.50;8502751;33;20426;-71
2021/01/15 19:04:19;;;;;;;12.13;5.93;;;;;;;2.45;62.01;101738.63;8493546;33;20199;-71
2021/01/15 19:09:22;;;;;;;10.23;6.20;;;;;;;2.46;61.74;101744.78;8494549;33;20184;-70
2021/01/15 19:14:24;;;;;;;12.43;6.33;;;;;;;2.47;62.05;101743.91;8516913;33;20429;-70
2021/01/15 19:19:27;;;;;;;20.60;9.23;;;;;;;2.48;62.17;101752.69;8508307;33;20171;-70
2021/01/15 19:24:30;;;;;;;14.87;7.07;;;;;;;2.43;61.43;101753.59;8495911;33;20530;-69
2021/01/15 19:29:32;;;;;;;14.37;5.80;;;;;;;2.42;61.67;101767.69;8525643;33;20418;-70
2021/01/15 19:34:36;;;;;;;23.23;10.60;;;;;;;2.41;61.91;101767.69;8545311;33;20429;-71
2021/01/15 19:39:39;;;;;;;12.87;6.53;;;;;;;2.44;61.72;101760.63;8555888;33;20160;-70
2021/01/15 19:44:41;;;;;;;27.10;10.67;;;;;;;2.45;62.00;101753.59;8560486;33;20285;-72
2021/01/15 19:49:47;;;;;;;20.20;8.50;;;;;;;2.42;61.58;101750.97;8551374;33;20454;-72
2021/01/15 19:54:49;;;;;;;21.37;9.07;;;;;;;2.40;61.39;101753.63;8546942;33;20940;-71
2021/01/15 19:59:53;;;;;;;25.27;10.87;;;;;;;2.43;61.91;101750.94;8546644;33;20250;-71
2021/01/15 20:04:57;;;;;;;16.83;7.80;;;;;;;2.44;62.67;101754.47;8533574;33;20535;-73
2021/01/15 20:09:59;;;;;;;11.40;6.50;;;;;;;2.44;62.13;101758.00;8500134;33;20164;-69
2021/01/15 20:15:02;;;;;;;11.90;5.80;;;;;;;2.46;61.59;101757.97;8496159;33;20459;-71
2021/01/15 20:20:07;;;;;;;23.77;9.37;;;;;;;2.46;61.56;101768.50;8489925;33;20228;-71
2021/01/15 20:25:11;;;;;;;19.57;8.27;;;;;;;2.42;61.92;101764.19;8487214;33;21291;-72
2021/01/15 20:30:15;;;;;;;13.80;6.60;;;;;;;2.43;62.22;101771.19;8490067;33;20151;-72
2021/01/15 20:35:18;;;;;;;20.57;9.10;;;;;;;2.34;61.76;101761.63;8491774;33;20183;-72
2021/01/15 20:40:22;;;;;;;38.27;17.70;;;;;;;2.39;61.74;101772.13;8492197;33;20455;-72
2021/01/15 20:45:26;;;;;;;15.73;7.50;;;;;;;2.38;62.04;101765.94;8491732;33;20133;-72
2021/01/15 20:50:30;;;;;;;12.13;6.23;;;;;;;2.48;62.27;101760.59;8491681;33;20156;-72
2021/01/15 20:55:33;;;;;;;8.73;4.70;;;;;;;2.49;62.62;101781.66;8507599;33;21177;-72
2021/01/15 21:00:36;;;;;;;7.70;4.90;;;;;;;2.50;62.09;101783.44;8496362;33;20149;-71
2021/01/15 21:05:41;;;;;;;10.20;5.10;;;;;;;2.40;62.25;101787.91;8492762;33;20153;-72
2021/01/15 21:10:45;;;;;;;10.17;5.07;;;;;;;2.44;62.37;101789.66;8489730;33;20198;-71
2021/01/15 21:15:48;;;;;;;9.77;4.80;;;;;;;2.25;62.30;101796.00;8489256;33;20647;-71
2021/01/15 21:20:51;;;;;;;11.90;4.97;;;;;;;2.16;64.04;101788.16;8488105;33;20410;-72
2021/01/15 21:25:53;;;;;;;9.57;4.87;;;;;;;2.20;64.29;101789.91;8484541;33;20153;-71
2021/01/15 21:30:56;;;;;;;8.90;5.37;;;;;;;2.21;65.59;101795.16;8485682;33;20466;-71
2021/01/15 21:35:59;;;;;;;13.30;6.40;;;;;;;2.29;65.72;101787.16;8483278;33;20187;-71
2021/01/15 21:41:01;;;;;;;11.23;5.80;;;;;;;2.15;65.73;101792.56;8479568;33;20251;-72
2021/01/15 21:46:04;;;;;;;11.93;7.13;;;;;;;2.06;65.78;101795.31;8487090;33;21012;-72
2021/01/15 21:51:08;;;;;;;13.13;6.80;;;;;;;2.02;66.23;101796.19;8480133;33;20527;-72
2021/01/15 21:56:10;;;;;;;15.33;6.90;;;;;;;1.98;66.80;101795.38;8478538;33;20947;-71
2021/01/15 22:01:12;;;;;;;13.73;7.17;;;;;;;1.91;67.41;101793.66;8507240;33;20291;-71
2021/01/15 22:06:16;;;;;;;17.60;6.80;;;;;;;2.09;67.09;101799.69;8538079;33;20428;-71
2021/01/15 22:11:18;;;;;;;12.37;5.57;;;;;;;2.20;67.48;101793.41;8535508;33;20512;-72
2021/01/15 22:16:20;;;;;;;13.67;6.30;;;;;;;2.23;68.09;101793.38;8535271;33;20172;-72
2021/01/15 22:21:24;;;;;;;12.67;6.40;;;;;;;2.24;68.09;101788.97;8535586;33;20479;-70
2021/01/15 22:26:26;;;;;;;14.27;6.90;;;;;;;2.09;67.97;101789.13;8535837;33;21226;-71
2021/01/15 22:31:29;;;;;;;15.50;6.70;;;;;;;2.05;67.80;101795.31;8522182;33;20207;-72
2021/01/15 22:36:33;;;;;;;17.27;6.63;;;;;;;2.13;68.00;101782.94;8472790;33;20181;-72
2021/01/15 22:41:35;;;;;;;17.47;7.23;;;;;;;2.19;68.10;101789.03;8471986;33;20176;-72
2021/01/15 22:46:38;;;;;;;12.60;6.53;;;;;;;2.18;68.07;101787.25;8472664;33;20419;-72
2021/01/15 22:51:42;;;;;;;16.70;7.17;;;;;;;1.97;68.22;101801.50;8470395;33;20839;-72
2021/01/15 22:56:44;;;;;;;15.00;6.57;;;;;;;1.84;67.97;101806.91;8469820;33;20556;-72
2021/01/15 23:01:47;;;;;;;15.47;7.47;;;;;;;2.07;68.16;101802.31;8470655;33;20904;-72
2021/01/15 23:06:50;;;;;;;18.70;7.00;;;;;;;1.92;67.54;101798.06;8472435;33;20396;-72
2021/01/15 23:11:53;;;;;;;12.90;5.97;;;;;;;2.12;67.63;101789.09;8526845;33;20457;-72
2021/01/15 23:16:55;;;;;;;13.37;6.93;;;;;;;1.81;67.28;101793.75;8531370;33;20464;-72
2021/01/15 23:22:00;;;;;;;17.73;7.57;;;;;;;1.95;67.67;101791.91;8535420;33;20449;-72
2021/01/15 23:27:06;;;;;;;11.97;5.63;;;;;;;1.93;67.49;101786.63;8501142;33;20443;-72